Time;durP1;ratioP1;P1;durP2;ratioP2;P2;SDS_P1;SDS_P2;PMS_P1;PMS_P2;Temp;Humidity;BMP_temperature;BMP_pressure;BME280_temperature;BME280_humidity;BME280_pressure;Samples;Min_cycle;Max_cycle;Signal;HPM_P1;HPM_P2
2021/08/10 00:00:20;;;;;;;;;;;27.80;99.70;;;;;;1921023;73;20171;-93
2021/08/10 00:02:50;;;;;;;;;;;27.90;99.70;;;;;;1953446;72;20460;-93
2021/08/10 00:05:21;;;;;;;;;;;27.90;99.50;;;;;;1877767;74;20246;-89
2021/08/10 00:07:53;;;;;;;;;;;27.90;99.50;;;;;;1889451;75;20216;-91
2021/08/10 00:10:26;;;;;;;;;;;27.90;99.40;;;;;;1885895;75;20175;-91
2021/08/10 00:12:56;;;;;;;;;;;27.90;99.40;;;;;;1909294;73;20158;-90
2021/08/10 00:15:26;;;;;;;;;;;28.00;99.40;;;;;;1954981;72;20234;-92
2021/08/10 00:17:58;;;;;;;;;;;28.00;99.40;;;;;;1960646;72;20189;-92
2021/08/10 00:20:35;;;;;;;;;;;28.00;99.50;;;;;;1966967;72;20441;-92
2021/08/10 00:23:11;;;;;;;;;;;28.00;99.30;;;;;;1964370;72;20237;-87
2021/08/10 00:25:43;;;;;;;;;;;28.10;99.20;;;;;;1960170;72;20141;-88
2021/08/10 00:28:13;;;;;;;;;;;28.00;99.20;;;;;;1980966;71;20287;-90
2021/08/10 00:30:46;;;;;;;;;;;28.10;99.30;;;;;;1972787;71;20452;-87
2021/08/10 00:33:16;;;;;;;;;;;28.10;99.30;;;;;;1973029;71;20173;-88
2021/08/10 00:35:54;;;;;;;;;;;28.20;99.20;;;;;;1949094;70;20217;-92
2021/08/10 00:38:24;;;;;;;;;;;28.20;99.00;;;;;;1917648;72;20269;-90
2021/08/10 00:40:54;;;;;;;;;;;28.20;99.00;;;;;;1888487;74;20174;-89
2021/08/10 00:43:25;;;;;;;;;;;28.20;99.00;;;;;;1916052;73;20172;-90
2021/08/10 00:45:55;;;;;;;;;;;28.20;99.00;;;;;;1958898;72;20241;-92
2021/08/10 00:48:28;;;;;;;;;;;28.30;99.00;;;;;;1964371;72;20226;-88
2021/08/10 00:50:58;;;;;;;;;;;28.30;99.00;;;;;;1973767;72;20235;-90
2021/08/10 00:53:29;;;;;;;;;;;28.40;98.70;;;;;;1954819;72;20242;-91
2021/08/10 00:55:59;;;;;;;;;;;28.40;98.50;;;;;;1971628;72;20240;-91
2021/08/10 00:58:32;;;;;;;;;;;28.40;98.70;;;;;;1965213;72;20198;-92
2021/08/10 01:01:03;;;;;;;;;;;28.50;98.50;;;;;;1957924;72;20224;-91
2021/08/10 01:03:34;;;;;;;;;;;28.50;98.60;;;;;;1957033;72;20213;-91
2021/08/10 01:06:05;;;;;;;;;;;28.50;98.60;;;;;;1936340;72;20172;-90
2021/08/10 01:08:37;;;;;;;;;;;28.60;98.20;;;;;;1884085;75;20158;-93
2021/08/10 01:11:08;;;;;;;;;;;28.60;98.00;;;;;;1902319;73;20170;-91
2021/08/10 01:13:39;;;;;;;;;;;28.70;98.10;;;;;;1950479;72;20203;-91
2021/08/10 01:16:10;;;;;;;;;;;28.70;98.10;;;;;;1947190;72;20196;-92
2021/08/10 01:18:41;;;;;;;;;;;28.70;98.40;;;;;;1953994;72;20278;-90
2021/08/10 01:21:13;;;;;;;;;;;28.80;98.10;;;;;;1866749;76;20214;-92
2021/08/10 01:23:44;;;;;;;;;;;28.80;98.10;;;;;;1893101;75;20550;-91
2021/08/10 01:26:15;;;;;;;;;;;28.80;97.90;;;;;;1933687;73;20206;-92
2021/08/10 01:28:46;;;;;;;;;;;28.90;97.70;;;;;;1947662;73;20236;-92
2021/08/10 01:31:16;;;;;;;;;;;28.90;97.20;;;;;;1908262;73;20135;-93
2021/08/10 01:33:47;;;;;;;;;;;29.00;97.30;;;;;;1921835;73;20228;-91
2021/08/10 01:36:17;;;;;;;;;;;29.00;97.20;;;;;;1956223;72;20492;-94
2021/08/10 01:38:48;;;;;;;;;;;29.00;97.20;;;;;;1950063;73;20158;-91
2021/08/10 01:41:20;;;;;;;;;;;29.10;97.30;;;;;;1947113;72;20175;-91
2021/08/10 01:43:50;;;;;;;;;;;29.20;97.50;;;;;;1944450;72;20245;-92
2021/08/10 01:46:22;;;;;;;;;;;29.30;97.30;;;;;;1962309;72;20165;-91
2021/08/10 01:48:57;;;;;;;;;;;29.40;96.90;;;;;;1919918;73;20176;-91
2021/08/10 01:51:35;;;;;;;;;;;29.40;96.60;;;;;;1951479;72;20676;-92
2021/08/10 01:54:09;;;;;;;;;;;29.50;96.20;;;;;;1945154;72;20158;-91
2021/08/10 01:56:37;;;;;;;;;;;29.50;95.80;;;;;;1938801;72;20207;-91
2021/08/10 01:59:17;;;;;;;;;;;29.50;95.80;;;;;;1950012;72;20239;-93
2021/08/10 02:01:49;;;;;;;;;;;29.60;95.70;;;;;;1950448;72;20157;-93
2021/08/10 02:04:27;;;;;;;;;;;29.60;95.70;;;;;;1945481;72;20184;-78
2021/08/10 02:06:52;;;;;;;;;;;29.60;95.60;;;;;;1947882;72;20133;-79
2021/08/10 02:09:22;;;;;;;;;;;29.70;95.80;;;;;;1951896;72;20233;-78
2021/08/10 02:11:53;;;;;;;;;;;29.70;95.70;;;;;;1954599;72;20220;-79
2021/08/10 02:14:32;;;;;;;;;;;29.80;95.70;;;;;;1956783;72;20532;-79
2021/08/10 02:17:03;;;;;;;;;;;29.90;95.40;;;;;;1937512;72;20233;-79
2021/08/10 02:19:34;;;;;;;;;;;30.00;95.20;;;;;;1942367;72;20199;-78
2021/08/10 02:22:04;;;;;;;;;;;30.10;94.90;;;;;;1914998;73;20129;-79
2021/08/10 02:24:35;;;;;;;;;;;30.20;95.00;;;;;;1951381;72;20193;-77
2021/08/10 02:27:06;;;;;;;;;;;30.30;94.50;;;;;;1932508;72;20163;-78
2021/08/10 02:29:55;;;;;;;;;;;30.40;94.40;;;;;;1940977;72;20173;-78
2021/08/10 02:32:26;;;;;;;;;;;30.50;94.00;;;;;;1813370;77;20221;-78
2021/08/10 02:35:01;;;;;;;;;;;30.60;93.40;;;;;;1805610;78;21009;-78
2021/08/10 02:37:30;;;;;;;;;;;30.70;93.90;;;;;;1804265;77;20169;-78
2021/08/10 02:40:03;;;;;;;;;;;30.80;94.00;;;;;;1803844;78;20212;-78
2021/08/10 02:42:33;;;;;;;;;;;31.00;93.60;;;;;;1807894;78;20212;-78
2021/08/10 02:45:04;;;;;;;;;;;31.10;93.10;;;;;;1817294;78;20186;-79
2021/08/10 02:47:33;;;;;;;;;;;31.20;92.90;;;;;;1812498;78;20351;-80
2021/08/10 02:50:04;;;;;;;;;;;31.30;92.30;;;;;;1814469;77;20463;-79
2021/08/10 02:52:33;;;;;;;;;;;31.40;91.40;;;;;;1804676;78;20240;-80
2021/08/10 02:55:07;;;;;;;;;;;31.40;91.70;;;;;;1799991;78;20515;-78
2021/08/10 02:57:47;;;;;;;;;;;31.50;91.10;;;;;;1770784;79;20229;-79
2021/08/10 03:00:27;;;;;;;;;;;31.60;90.90;;;;;;1775941;79;20194;-76
2021/08/10 03:02:56;;;;;;;;;;;31.70;90.70;;;;;;1781295;79;20265;-79
2021/08/10 03:05:29;;;;;;;;;;;31.80;90.80;;;;;;1817301;75;20632;-77
2021/08/10 03:08:20;;;;;;;;;;;31.80;90.50;;;;;;1778726;78;20243;-77
2021/08/10 03:10:51;;;;;;;;;;;32.00;90.40;;;;;;1813880;78;20192;-78
2021/08/10 03:13:21;;;;;;;;;;;32.00;90.10;;;;;;1808280;78;20502;-78
2021/08/10 03:15:52;;;;;;;;;;;32.10;88.80;;;;;;1819332;78;20474;-80
2021/08/10 03:18:26;;;;;;;;;;;32.20;89.00;;;;;;1808892;79;20184;-79
2021/08/10 03:21:00;;;;;;;;;;;32.20;89.80;;;;;;1807303;78;20142;-78
2021/08/10 03:23:32;;;;;;;;;;;32.20;89.30;;;;;;1810124;77;20244;-78
2021/08/10 03:34:05;;;;;;;;;;;32.40;85.40;;;;;;1917575;72;20186;-79
2021/08/10 03:36:35;;;;;;;;;;;32.40;87.20;;;;;;1925556;73;20187;-80
2021/08/10 03:39:04;;;;;;;;;;;32.50;87.10;;;;;;1927814;73;20424;-82
2021/08/10 03:41:34;;;;;;;;;;;32.60;86.90;;;;;;1925025;73;20228;-78
2021/08/10 03:44:04;;;;;;;;;;;32.60;85.20;;;;;;1929486;73;20208;-79
2021/08/10 03:46:34;;;;;;;;;;;32.60;84.10;;;;;;1932204;73;20210;-80
2021/08/10 03:49:04;;;;;;;;;;;32.60;86.40;;;;;;1930633;73;20165;-79
2021/08/10 03:51:35;;;;;;;;;;;32.60;84.90;;;;;;1907411;74;20462;-80
2021/08/10 03:54:07;;;;;;;;;;;32.60;82.50;;;;;;1881555;76;20446;-80
2021/08/10 03:56:38;;;;;;;;;;;32.70;82.60;;;;;;1900137;74;20945;-78
2021/08/10 03:59:08;;;;;;;;;;;32.70;83.30;;;;;;1851458;76;20558;-82
2021/08/10 04:01:37;;;;;;;;;;;;;;;;;;1901398;74;20214;-80
2021/08/10 04:04:08;;;;;;;;;;;32.90;80.50;;;;;;1860554;76;20172;-79
2021/08/10 04:06:38;;;;;;;;;;;32.90;81.30;;;;;;1891248;74;20244;-79
2021/08/10 04:09:08;;;;;;;;;;;33.00;81.80;;;;;;1863666;76;20176;-79
2021/08/10 04:11:39;;;;;;;;;;;33.00;82.10;;;;;;1918955;73;20395;-79
2021/08/10 04:14:09;;;;;;;;;;;33.10;81.90;;;;;;1908927;73;20489;-79
2021/08/10 04:16:40;;;;;;;;;;;33.10;81.70;;;;;;1916268;73;20729;-80
2021/08/10 04:19:10;;;;;;;;;;;33.10;81.40;;;;;;1916124;73;20239;-80
2021/08/10 04:21:39;;;;;;;;;;;33.20;81.40;;;;;;1916349;73;20251;-81
2021/08/10 04:24:09;;;;;;;;;;;33.20;79.30;;;;;;1917725;74;20119;-81
2021/08/10 04:26:40;;;;;;;;;;;33.20;78.40;;;;;;1890315;74;20156;-82
2021/08/10 04:29:13;;;;;;;;;;;33.20;77.70;;;;;;1914427;74;20153;-80
2021/08/10 04:31:44;;;;;;;;;;;33.20;79.00;;;;;;1909063;74;20217;-79
2021/08/10 04:34:13;;;;;;;;;;;33.20;78.20;;;;;;1924272;73;20217;-80
2021/08/10 04:36:43;;;;;;;;;;;33.20;77.40;;;;;;1930961;73;20232;-82
2021/08/10 04:39:13;;;;;;;;;;;33.20;77.60;;;;;;1936370;73;20111;-81
2021/08/10 04:41:43;;;;;;;;;;;33.20;78.70;;;;;;1889630;75;20269;-82
2021/08/10 04:44:12;;;;;;;;;;;33.20;78.30;;;;;;1925376;74;20240;-80
2021/08/10 04:47:04;;;;;;;;;;;33.30;77.60;;;;;;1923610;74;20378;-80
2021/08/10 04:49:31;;;;;;;;;;;33.30;78.40;;;;;;1921083;73;20452;-81
2021/08/10 04:51:59;;;;;;;;;;;33.40;78.80;;;;;;1888372;73;20385;-80
2021/08/10 04:54:29;;;;;;;;;;;33.50;77.80;;;;;;1901119;73;20494;-81
2021/08/10 04:57:13;;;;;;;;;;;;;;;;;;;;;
2021/08/10 04:59:35;;;;;;;;;;;33.40;77.80;;;;;;1879644;76;20203;-81
2021/08/10 05:02:05;;;;;;;;;;;33.50;79.30;;;;;;1889357;76;20182;-80
2021/08/10 05:04:35;;;;;;;;;;;33.50;78.40;;;;;;1918599;74;20200;-80
2021/08/10 05:07:05;;;;;;;;;;;33.50;78.60;;;;;;1915607;74;20171;-80
2021/08/10 05:09:34;;;;;;;;;;;33.60;78.80;;;;;;1926304;73;20182;-80
2021/08/10 05:13:38;;;;;;;;;;;33.70;78.30;;;;;;1913484;73;20480;-80
2021/08/10 05:14:54;;;;;;;;;;;33.80;77.90;;;;;;1913005;72;20181;-81
2021/08/10 05:17:24;;;;;;;;;;;33.80;76.50;;;;;;1890912;74;20183;-81
2021/08/10 05:19:54;;;;;;;;;;;33.90;76.10;;;;;;1857835;76;20206;-80
2021/08/10 05:22:25;;;;;;;;;;;33.90;75.90;;;;;;1908678;74;20202;-81
2021/08/10 05:24:54;;;;;;;;;;;33.90;75.50;;;;;;1907466;74;20237;-81
2021/08/10 05:27:24;;;;;;;;;;;33.90;76.10;;;;;;1905806;74;20812;-80
2021/08/10 05:29:54;;;;;;;;;;;33.90;76.70;;;;;;1907647;74;20462;-80
2021/08/10 05:32:29;;;;;;;;;;;34.00;76.40;;;;;;1860104;76;20180;-79
2021/08/10 05:35:01;;;;;;;;;;;33.90;76.30;;;;;;1919732;73;20228;-80
2021/08/10 05:37:31;;;;;;;;;;;33.90;76.60;;;;;;1933448;73;20190;-81
2021/08/10 05:40:01;;;;;;;;;;;33.90;76.00;;;;;;1939786;73;20516;-81
2021/08/10 05:42:31;;;;;;;;;;;34.00;77.40;;;;;;1934819;73;20173;-81
2021/08/10 05:45:00;;;;;;;;;;;;;;;;;;1944276;73;20119;-80
2021/08/10 05:47:30;;;;;;;;;;;34.00;73.60;;;;;;1887252;74;20498;-82
2021/08/10 05:50:00;;;;;;;;;;;34.00;75.50;;;;;;1869596;76;20184;-81
2021/08/10 05:52:30;;;;;;;;;;;34.00;76.50;;;;;;1879672;75;20383;-81
2021/08/10 05:55:00;;;;;;;;;;;34.10;75.80;;;;;;1910933;74;20235;-81
2021/08/10 05:57:29;;;;;;;;;;;34.10;76.00;;;;;;1904806;74;20202;-81
2021/08/10 05:59:59;;;;;;;;;;;34.10;77.00;;;;;;1900852;74;20151;-82
2021/08/10 06:02:29;;;;;;;;;;;34.00;75.90;;;;;;1895930;74;20132;-81
2021/08/10 06:04:59;;;;;;;;;;;34.00;75.90;;;;;;1919808;74;20139;-80
2021/08/10 06:07:29;;;;;;;;;;;34.00;75.10;;;;;;1857413;75;20504;-82
2021/08/10 06:09:59;;;;;;;;;;;34.00;76.90;;;;;;1904888;74;20190;-81
2021/08/10 06:12:29;;;;;;;;;;;34.00;76.70;;;;;;1881307;75;20209;-80
2021/08/10 06:14:59;;;;;;;;;;;34.00;77.30;;;;;;1878822;76;20160;-82
2021/08/10 06:17:29;;;;;;;;;;;34.00;76.50;;;;;;1889799;74;20162;-80
2021/08/10 06:19:58;;;;;;;;;;;33.90;74.60;;;;;;1919262;73;20243;-79
2021/08/10 06:22:28;;;;;;;;;;;33.90;74.20;;;;;;1954406;73;20442;-80
2021/08/10 06:24:58;;;;;;;;;;;33.90;74.60;;;;;;1925927;73;20605;-80
2021/08/10 06:27:28;;;;;;;;;;;33.80;75.10;;;;;;1926677;73;20200;-79
2021/08/10 06:29:57;;;;;;;;;;;33.70;74.80;;;;;;1926304;73;20176;-81
2021/08/10 06:32:32;;;;;;;;;;;33.60;77.60;;;;;;1922880;74;20235;-80
2021/08/10 06:35:01;;;;;;;;;;;33.50;78.10;;;;;;1924328;73;20207;-84
2021/08/10 06:37:31;;;;;;;;;;;33.50;79.20;;;;;;1876513;75;20245;-81
2021/08/10 06:40:00;;;;;;;;;;;33.40;80.30;;;;;;1898086;74;20245;-80
2021/08/10 06:42:30;;;;;;;;;;;33.40;80.90;;;;;;1899687;74;20883;-81
2021/08/10 06:45:03;;;;;;;;;;;33.30;81.20;;;;;;1921938;73;20531;-81
2021/08/10 06:47:35;;;;;;;;;;;33.30;81.60;;;;;;1927432;73;20573;-80
2021/08/10 06:50:16;;;;;;;;;;;33.30;82.30;;;;;;1933016;73;20118;-80
2021/08/10 06:52:48;;;;;;;;;;;33.20;82.10;;;;;;1926682;73;20145;-81
2021/08/10 06:57:14;;;;;;;;;;;33.20;82.30;;;;;;1930073;73;20219;-81
2021/08/10 06:58:10;;;;;;;;;;;33.10;82.30;;;;;;1850791;74;20144;-80
2021/08/10 07:00:40;;;;;;;;;;;33.10;82.60;;;;;;1884543;76;20517;-81
2021/08/10 07:03:14;;;;;;;;;;;33.00;82.20;;;;;;1915581;73;20187;-80
2021/08/10 07:05:41;;;;;;;;;;;33.00;81.80;;;;;;1906777;73;20124;-81
2021/08/10 07:08:10;;;;;;;;;;;33.00;82.40;;;;;;1899324;74;20530;-79
2021/08/10 07:10:40;;;;;;;;;;;33.00;81.80;;;;;;1931762;73;20241;-81
2021/08/10 07:13:10;;;;;;;;;;;33.00;82.00;;;;;;1933390;73;20213;-81
2021/08/10 07:15:43;;;;;;;;;;;33.00;82.10;;;;;;1937823;73;20477;-81
2021/08/10 07:18:13;;;;;;;;;;;33.00;82.00;;;;;;1856050;77;20233;-81
2021/08/10 07:20:43;;;;;;;;;;;33.10;81.90;;;;;;1926032;73;20209;-81
2021/08/10 07:23:13;;;;;;;;;;;33.10;81.60;;;;;;1931543;73;20126;-81
2021/08/10 07:25:46;;;;;;;;;;;33.10;81.50;;;;;;1926388;74;20165;-81
2021/08/10 07:28:20;;;;;;;;;;;33.10;81.30;;;;;;1927644;73;20222;-80
2021/08/10 07:30:50;;;;;;;;;;;33.20;81.60;;;;;;1927883;73;20160;-81
2021/08/10 07:33:20;;;;;;;;;;;33.20;81.50;;;;;;1922447;74;20487;-81
2021/08/10 07:35:50;;;;;;;;;;;33.20;82.00;;;;;;1932793;73;20491;-80
2021/08/10 07:38:24;;;;;;;;;;;33.20;81.10;;;;;;1927049;73;20174;-80
2021/08/10 07:40:51;;;;;;;;;;;33.20;81.20;;;;;;1930277;72;20252;-81
2021/08/10 07:43:20;;;;;;;;;;;33.20;81.50;;;;;;1925578;74;20177;-80
2021/08/10 07:45:53;;;;;;;;;;;33.10;82.00;;;;;;1881735;75;20132;-80
2021/08/10 07:48:23;;;;;;;;;;;33.10;81.70;;;;;;1869620;76;20244;-80
2021/08/10 07:50:56;;;;;;;;;;;33.10;82.40;;;;;;1856740;75;20305;-79
2021/08/10 07:53:27;;;;;;;;;;;33.10;82.30;;;;;;1887379;74;20235;-80
2021/08/10 07:55:57;;;;;;;;;;;33.10;82.10;;;;;;1922191;73;20261;-80
2021/08/10 07:58:26;;;;;;;;;;;33.10;82.20;;;;;;1891385;74;20189;-80
2021/08/10 08:00:56;;;;;;;;;;;33.10;81.40;;;;;;1939148;73;20443;-82
2021/08/10 08:03:27;;;;;;;;;;;33.10;81.40;;;;;;1933890;73;20189;-81
2021/08/10 08:05:58;;;;;;;;;;;33.00;81.10;;;;;;1933203;73;20490;-80
2021/08/10 08:08:29;;;;;;;;;;;33.00;81.70;;;;;;1931193;73;20129;-80
2021/08/10 08:10:59;;;;;;;;;;;33.00;82.10;;;;;;1925837;73;20483;-80
2021/08/10 08:13:40;;;;;;;;;;;33.00;81.60;;;;;;1917507;73;20239;-82
2021/08/10 08:16:06;;;;;;;;;;;32.90;81.30;;;;;;1920704;73;20228;-79
2021/08/10 08:18:42;;;;;;;;;;;33.00;82.30;;;;;;1922411;73;20253;-82
2021/08/10 08:21:25;;;;;;;;;;;33.00;82.50;;;;;;1931265;73;20181;-80
2021/08/10 08:23:55;;;;;;;;;;;33.00;83.00;;;;;;1905793;74;20203;-82
2021/08/10 08:26:31;;;;;;;;;;;33.00;82.40;;;;;;1908681;74;20173;-82
2021/08/10 08:29:07;;;;;;;;;;;33.10;82.10;;;;;;1898684;74;20276;-81
2021/08/10 08:31:55;;;;;;;;;;;33.10;81.40;;;;;;1898537;74;20163;-82
2021/08/10 08:34:26;;;;;;;;;;;33.10;81.80;;;;;;1883233;74;20410;-81
2021/08/10 08:36:56;;;;;;;;;;;33.10;81.40;;;;;;1892471;74;20177;-80
2021/08/10 08:39:26;;;;;;;;;;;33.10;81.60;;;;;;1875325;75;20226;-82
2021/08/10 08:41:55;;;;;;;;;;;33.10;82.00;;;;;;1892693;74;20188;-81
2021/08/10 08:44:34;;;;;;;;;;;33.10;81.40;;;;;;1863994;76;20544;-83
2021/08/10 08:47:04;;;;;;;;;;;33.10;81.10;;;;;;1847728;77;20178;-81
2021/08/10 08:49:47;;;;;;;;;;;33.20;81.50;;;;;;1857440;76;20214;-80
2021/08/10 08:52:39;;;;;;;;;;;33.20;82.10;;;;;;1860448;75;20258;-83
2021/08/10 08:55:21;;;;;;;;;;;;;;;;;;;;;
2021/08/10 08:57:52;;;;;;;;;;;33.30;80.50;;;;;;1881267;75;20567;-83
2021/08/10 09:00:22;;;;;;;;;;;33.20;80.70;;;;;;1885446;76;20349;-85
2021/08/10 09:02:52;;;;;;;;;;;33.30;80.20;;;;;;1890655;74;20226;-85
2021/08/10 09:05:22;;;;;;;;;;;33.30;79.40;;;;;;1854386;76;20444;-83
2021/08/10 09:08:02;;;;;;;;;;;33.30;78.80;;;;;;1905041;75;20169;-82
2021/08/10 09:11:13;;;;;;;;;;;33.30;79.90;;;;;;1909675;73;20400;-81
2021/08/10 09:13:47;;;;;;;;;;;33.30;80.00;;;;;;1814796;78;20267;-83
2021/08/10 09:16:20;;;;;;;;;;;33.20;80.00;;;;;;1822726;77;20334;-82
2021/08/10 09:18:47;;;;;;;;;;;33.20;79.50;;;;;;1821811;78;20291;-81
2021/08/10 09:21:18;;;;;;;;;;;33.10;80.20;;;;;;1819618;79;20276;-84
2021/08/10 09:23:49;;;;;;;;;;;33.10;79.40;;;;;;1821065;77;21017;-82
2021/08/10 09:26:20;;;;;;;;;;;33.10;79.70;;;;;;1821005;78;20222;-82
2021/08/10 09:28:51;;;;;;;;;;;33.00;79.80;;;;;;1816228;78;20283;-82
2021/08/10 09:31:22;;;;;;;;;;;33.00;79.70;;;;;;1820729;78;20235;-81
2021/08/10 09:33:52;;;;;;;;;;;33.00;80.20;;;;;;1819811;78;20263;-82
2021/08/10 09:36:22;;;;;;;;;;;33.00;80.40;;;;;;1820698;78;20215;-84
2021/08/10 09:38:52;;;;;;;;;;;33.00;80.20;;;;;;1823455;77;20208;-80
2021/08/10 09:41:22;;;;;;;;;;;33.00;80.80;;;;;;1833642;77;20294;-82
2021/08/10 09:43:53;;;;;;;;;;;33.00;80.10;;;;;;1861969;74;20213;-83
2021/08/10 09:46:22;;;;;;;;;;;33.00;79.50;;;;;;1873628;75;20199;-83
2021/08/10 09:48:54;;;;;;;;;;;32.90;79.70;;;;;;1899432;75;20227;-82
2021/08/10 09:51:30;;;;;;;;;;;32.80;79.80;;;;;;1863061;75;20249;-82
2021/08/10 09:54:05;;;;;;;;;;;32.80;80.80;;;;;;1850339;76;20304;-79
2021/08/10 09:56:37;;;;;;;;;;;32.80;80.80;;;;;;1863776;75;20201;-80
2021/08/10 09:59:08;;;;;;;;;;;32.80;80.80;;;;;;1924640;73;20125;-84
2021/08/10 10:01:39;;;;;;;;;;;32.70;80.80;;;;;;1920501;73;20131;-83
2021/08/10 10:04:09;;;;;;;;;;;32.70;81.20;;;;;;1932445;73;20199;-83
2021/08/10 10:06:39;;;;;;;;;;;32.70;82.10;;;;;;1928065;73;20188;-82
2021/08/10 10:09:11;;;;;;;;;;;32.70;82.30;;;;;;1929581;73;20466;-82
2021/08/10 10:11:42;;;;;;;;;;;32.60;82.30;;;;;;1924447;74;20196;-81
2021/08/10 10:14:12;;;;;;;;;;;32.60;82.00;;;;;;1933975;73;20184;-81
2021/08/10 10:16:43;;;;;;;;;;;32.60;82.10;;;;;;1930124;73;20212;-81
2021/08/10 10:19:14;;;;;;;;;;;32.60;82.40;;;;;;1929844;73;20208;-80
2021/08/10 10:21:45;;;;;;;;;;;32.60;82.40;;;;;;1919656;73;20179;-82
2021/08/10 10:24:16;;;;;;;;;;;32.60;82.50;;;;;;1922252;73;20211;-81
2021/08/10 10:26:47;;;;;;;;;;;32.60;82.60;;;;;;1941093;73;20160;-81
2021/08/10 10:29:17;;;;;;;;;;;32.60;84.00;;;;;;1863115;76;20479;-81
2021/08/10 10:31:47;;;;;;;;;;;32.50;84.70;;;;;;1897299;75;20237;-82
2021/08/10 10:34:18;;;;;;;;;;;32.40;84.70;;;;;;1899007;74;20120;-83
2021/08/10 10:36:48;;;;;;;;;;;32.50;85.80;;;;;;1883282;74;20135;-82
2021/08/10 10:39:19;;;;;;;;;;;32.50;85.10;;;;;;1864270;75;20504;-81
2021/08/10 10:41:49;;;;;;;;;;;32.40;84.70;;;;;;1872778;76;20412;-81
2021/08/10 10:44:20;;;;;;;;;;;32.40;85.00;;;;;;1865065;75;20208;-80
2021/08/10 10:46:50;;;;;;;;;;;32.30;86.20;;;;;;1862690;76;20216;-82
2021/08/10 10:49:22;;;;;;;;;;;32.30;85.30;;;;;;1865780;76;20290;-81
2021/08/10 10:51:52;;;;;;;;;;;32.30;85.70;;;;;;1865029;76;20196;-80
2021/08/10 10:54:27;;;;;;;;;;;32.20;85.50;;;;;;1861106;76;20256;-78
2021/08/10 10:56:56;;;;;;;;;;;32.20;85.30;;;;;;1869913;76;20227;-81
2021/08/10 10:59:27;;;;;;;;;;;32.20;85.50;;;;;;1871809;76;20219;-78
2021/08/10 11:01:58;;;;;;;;;;;32.20;84.90;;;;;;1853715;76;20228;-90
2021/08/10 11:04:28;;;;;;;;;;;32.20;85.00;;;;;;1869668;76;20230;-91
2021/08/10 11:06:57;;;;;;;;;;;32.20;85.00;;;;;;1858202;76;20217;-91
2021/08/10 11:09:28;;;;;;;;;;;32.20;85.10;;;;;;1877155;74;20490;-92
2021/08/10 11:11:59;;;;;;;;;;;32.20;84.70;;;;;;1871082;76;20171;-92
2021/08/10 11:14:30;;;;;;;;;;;32.20;84.90;;;;;;1865677;75;20184;-92
2021/08/10 11:17:01;;;;;;;;;;;32.20;85.10;;;;;;1873552;75;20652;-90
2021/08/10 11:19:32;;;;;;;;;;;32.10;85.40;;;;;;1868607;76;20530;-92
2021/08/10 11:22:03;;;;;;;;;;;32.10;85.50;;;;;;1876631;76;20301;-88
2021/08/10 11:24:34;;;;;;;;;;;32.10;86.30;;;;;;1869603;75;20209;-90
2021/08/10 11:27:05;;;;;;;;;;;32.10;86.70;;;;;;1873284;75;20468;-89
2021/08/10 11:29:35;;;;;;;;;;;32.00;86.80;;;;;;1871685;75;20215;-91
2021/08/10 11:32:06;;;;;;;;;;;32.00;87.00;;;;;;1874248;76;20225;-90
2021/08/10 11:34:37;;;;;;;;;;;32.00;87.40;;;;;;1865564;75;20219;-90
2021/08/10 11:37:08;;;;;;;;;;;32.00;87.90;;;;;;1863654;76;20212;-89
2021/08/10 11:39:39;;;;;;;;;;;32.00;88.10;;;;;;1901383;74;20178;-91
2021/08/10 11:42:13;;;;;;;;;;;31.90;88.00;;;;;;1901523;74;20235;-91
2021/08/10 11:44:42;;;;;;;;;;;31.90;88.20;;;;;;1906244;74;20229;-90
2021/08/10 11:47:12;;;;;;;;;;;31.90;88.30;;;;;;1901028;74;20182;-90
2021/08/10 11:49:42;;;;;;;;;;;31.80;88.50;;;;;;1903097;74;20192;-91
2021/08/10 11:52:13;;;;;;;;;;;31.80;88.60;;;;;;1900236;75;20135;-90
2021/08/10 11:54:46;;;;;;;;;;;31.80;88.80;;;;;;1913857;74;20235;-90
2021/08/10 11:57:15;;;;;;;;;;;31.80;88.90;;;;;;1908194;74;20195;-89
2021/08/10 11:59:45;;;;;;;;;;;31.80;89.00;;;;;;1907324;73;20151;-89
2021/08/10 12:02:15;;;;;;;;;;;31.80;89.10;;;;;;1907203;74;20131;-90
2021/08/10 12:04:46;;;;;;;;;;;31.80;89.20;;;;;;1915414;74;20189;-89
2021/08/10 12:07:19;;;;;;;;;;;31.70;89.60;;;;;;1908544;74;20166;-88
2021/08/10 12:09:49;;;;;;;;;;;31.70;89.90;;;;;;1920522;74;20214;-91
2021/08/10 12:12:21;;;;;;;;;;;31.70;89.80;;;;;;1926400;74;20157;-91
2021/08/10 12:14:50;;;;;;;;;;;31.70;89.90;;;;;;1910874;74;20206;-89
2021/08/10 12:17:20;;;;;;;;;;;31.70;89.70;;;;;;1910689;74;20193;-91
2021/08/10 12:19:50;;;;;;;;;;;31.60;89.40;;;;;;1907977;74;20543;-88
2021/08/10 12:22:20;;;;;;;;;;;31.60;89.50;;;;;;1923760;74;20213;-91
2021/08/10 12:24:52;;;;;;;;;;;31.70;89.50;;;;;;1910083;74;20171;-92
2021/08/10 12:27:43;;;;;;;;;;;31.70;89.50;;;;;;1878677;75;20231;-91
2021/08/10 12:30:15;;;;;;;;;;;31.60;89.90;;;;;;1831152;77;20203;-90
2021/08/10 12:32:45;;;;;;;;;;;31.60;90.00;;;;;;1863679;77;20177;-90
2021/08/10 12:35:21;;;;;;;;;;;31.60;90.00;;;;;;1866531;77;20221;-88
2021/08/10 12:37:49;;;;;;;;;;;31.60;90.10;;;;;;1862513;75;20184;-90
2021/08/10 12:40:21;;;;;;;;;;;31.60;90.20;;;;;;1822874;79;20227;-90
2021/08/10 12:42:50;;;;;;;;;;;31.50;90.20;;;;;;1857539;77;20468;-90
2021/08/10 12:45:20;;;;;;;;;;;31.50;90.20;;;;;;1850704;76;20148;-89
2021/08/10 12:47:50;;;;;;;;;;;31.50;90.30;;;;;;1858581;77;20199;-89
2021/08/10 12:50:21;;;;;;;;;;;31.40;90.40;;;;;;1828974;77;20175;-91
2021/08/10 12:52:51;;;;;;;;;;;31.40;90.50;;;;;;1862196;76;20504;-91
2021/08/10 12:55:21;;;;;;;;;;;31.40;90.50;;;;;;1861268;76;20185;-87
2021/08/10 12:57:52;;;;;;;;;;;31.40;90.40;;;;;;1868626;75;20142;-85
2021/08/10 13:00:22;;;;;;;;;;;31.40;90.60;;;;;;1853171;75;20230;-88
2021/08/10 13:02:52;;;;;;;;;;;31.30;90.40;;;;;;1861734;74;20333;-86
2021/08/10 13:05:24;;;;;;;;;;;31.30;90.40;;;;;;1895172;71;20208;-87
2021/08/10 13:07:57;;;;;;;;;;;31.30;90.40;;;;;;1927253;71;20249;-86
2021/08/10 13:10:44;;;;;;;;;;;31.30;90.30;;;;;;1901809;71;20142;-89
2021/08/10 13:13:32;;;;;;;;;;;31.30;90.20;;;;;;1820441;77;20160;-91
2021/08/10 13:16:21;;;;;;;;;;;31.30;90.20;;;;;;1846767;75;20225;-89
2021/08/10 13:18:59;;;;;;;;;;;31.30;90.20;;;;;;1823266;77;20143;-89
2021/08/10 13:21:41;;;;;;;;;;;31.30;90.20;;;;;;1805289;73;20216;-87
2021/08/10 13:38:44;;;;;;;;;;;31.30;89.40;;;;;;1907257;72;20234;-86
2021/08/10 13:41:40;;;;;;;;;;;31.30;89.20;;;;;;1919664;73;20173;-90
2021/08/10 13:45:52;;;;;;;;;;;31.30;89.10;;;;;;1892447;74;20224;-90
2021/08/10 13:47:24;;;;;;;;;;;31.20;89.00;;;;;;1735722;79;20218;-87
2021/08/10 13:49:54;;;;;;;;;;;31.20;88.80;;;;;;1785937;79;20233;-88
2021/08/10 13:52:27;;;;;;;;;;;31.20;88.40;;;;;;1769287;80;20133;-91
2021/08/10 13:54:57;;;;;;;;;;;31.20;88.30;;;;;;1750446;81;20185;-90
2021/08/10 13:57:28;;;;;;;;;;;31.20;88.00;;;;;;1760957;81;20211;-90
2021/08/10 14:02:23;;;;;;;;;;;31.20;87.80;;;;;;1765221;79;20231;-91
2021/08/10 14:02:50;;;;;;;;;;;31.20;87.20;;;;;;1685219;80;20259;-91
2021/08/10 14:05:26;;;;;;;;;;;31.20;87.30;;;;;;1798583;79;20209;-92
2021/08/10 14:08:01;;;;;;;;;;;31.20;87.60;;;;;;1836845;78;20144;-92
2021/08/10 14:10:30;;;;;;;;;;;31.20;87.50;;;;;;1839575;78;20255;-91
2021/08/10 14:13:00;;;;;;;;;;;31.10;87.50;;;;;;1841037;77;20456;-91
2021/08/10 14:15:40;;;;;;;;;;;31.10;87.40;;;;;;1838819;77;20214;-91
2021/08/10 14:18:24;;;;;;;;;;;31.20;87.50;;;;;;1838149;77;20180;-91
2021/08/10 14:21:11;;;;;;;;;;;31.10;87.60;;;;;;1852019;73;20286;-92
2021/08/10 14:23:46;;;;;;;;;;;31.10;87.60;;;;;;1945306;72;20259;-91
2021/08/10 14:29:36;;;;;;;;;;;31.10;87.60;;;;;;1900731;73;20252;-91
2021/08/10 14:32:10;;;;;;;;;;;31.10;87.60;;;;;;1900335;73;20138;-91
2021/08/10 14:35:03;;;;;;;;;;;31.10;87.50;;;;;;1900983;73;20263;-91
2021/08/10 14:37:34;;;;;;;;;;;31.00;87.30;;;;;;1900375;74;20487;-91
2021/08/10 14:40:04;;;;;;;;;;;31.10;87.30;;;;;;1906699;74;20166;-91
2021/08/10 14:42:44;;;;;;;;;;;31.10;87.60;;;;;;1904306;75;20395;-91
2021/08/10 14:45:11;;;;;;;;;;;31.00;87.60;;;;;;1916468;73;20463;-92
2021/08/10 14:47:48;;;;;;;;;;;31.10;87.70;;;;;;1889177;74;20185;-92
2021/08/10 14:50:20;;;;;;;;;;;31.10;87.70;;;;;;1890920;74;20433;-91
2021/08/10 14:52:51;;;;;;;;;;;31.10;87.80;;;;;;1889628;74;20211;-91
2021/08/10 14:55:26;;;;;;;;;;;31.10;87.80;;;;;;1886924;74;20177;-92
2021/08/10 14:58:02;;;;;;;;;;;31.10;87.90;;;;;;1911183;73;20196;-92
2021/08/10 15:00:45;;;;;;;;;;;31.10;87.70;;;;;;1955418;71;20213;-90
2021/08/10 15:03:13;;;;;;;;;;;31.10;87.80;;;;;;1978258;71;20120;-92
2021/08/10 15:05:46;;;;;;;;;;;31.10;87.90;;;;;;1976531;71;20208;-92
2021/08/10 15:08:16;;;;;;;;;;;31.10;87.60;;;;;;1977023;70;20557;-91
2021/08/10 15:10:49;;;;;;;;;;;31.00;87.70;;;;;;1971144;71;20110;-90
2021/08/10 15:13:18;;;;;;;;;;;31.00;88.10;;;;;;1972663;71;20179;-91